Byron, Michigan
Current Conditions -  °F | °C
As of 3:15 PM on Thursday 30 Oct 2014 (Local Time) from KOZW Reporting Station
Overcast Overcast  
Wind Chill:   Ceiling: 4400
Heat Index:   Visibility: 10mi
Dew Point:   Wind: 7mph
Humidity: 62%   Direction: 220°SW
Pressure: 30.06"   Gusts: NA
Location:  42.82°N, 83.94°W
Report Text: KOZW 301915Z AUTO 22006KT 10SM SCT036 OVC044 09/02 A3006 RMK AO2 T00850016
Loading
Personal Weather Stations






























Interactive Weather Map
Tropical Storm Tracking
New forecast layout! Learn more

10-Day Weather Forecast

Advertisements
Track Severe Weather on mobile